Time;durP1;ratioP1;P1;durP2;ratioP2;P2;SDS_P1;SDS_P2;PMS_P1;PMS_P2;Temp;Humidity;BMP_temperature;BMP_pressure;BME280_temperature;BME280_humidity;BME280_pressure;Samples;Min_cycle;Max_cycle;Signal;HPM_P1;HPM_P2
2023/08/07 00:00:45;;;;;;;6.90;1.83;;;14.70;99.90;;;;;;4157611;28;20034;-72
2023/08/07 00:02:45;;;;;;;6.95;1.77;;;14.70;99.90;;;;;;4132027;28;20373;-72
2023/08/07 00:04:46;;;;;;;7.15;2.10;;;14.60;99.90;;;;;;4159977;28;20491;-69
2023/08/07 00:06:47;;;;;;;6.43;2.03;;;14.70;99.90;;;;;;4138638;28;20472;-69
2023/08/07 00:08:48;;;;;;;6.07;1.65;;;14.70;99.90;;;;;;4141287;28;20483;-69
2023/08/07 00:10:49;;;;;;;7.57;1.95;;;14.70;99.90;;;;;;4157541;28;20041;-70
2023/08/07 00:12:50;;;;;;;7.88;2.00;;;14.70;99.90;;;;;;4142190;28;20092;-69
2023/08/07 00:14:50;;;;;;;7.43;1.92;;;14.60;99.90;;;;;;4139926;28;20402;-68
2023/08/07 00:16:51;;;;;;;6.05;1.40;;;14.60;99.90;;;;;;4153844;28;20121;-69
2023/08/07 00:18:55;;;;;;;5.30;1.80;;;14.60;99.90;;;;;;4131527;28;20046;-68
2023/08/07 00:20:56;;;;;;;6.60;1.38;;;14.70;99.90;;;;;;4141214;28;20026;-68
2023/08/07 00:22:57;;;;;;;7.75;1.90;;;14.70;99.90;;;;;;4115533;28;20267;-68
2023/08/07 00:24:57;;;;;;;4.97;1.70;;;14.60;99.90;;;;;;4124368;28;20034;-69
2023/08/07 00:26:58;;;;;;;7.30;1.77;;;14.70;99.90;;;;;;4149566;28;20423;-69
2023/08/07 00:28:59;;;;;;;6.30;1.63;;;14.70;99.90;;;;;;4157669;28;20124;-68
2023/08/07 00:31:02;;;;;;;6.50;1.60;;;14.60;99.90;;;;;;4154463;28;20037;-68
2023/08/07 00:33:03;;;;;;;9.60;1.73;;;14.70;99.90;;;;;;4131779;28;20104;-68
2023/08/07 00:35:05;;;;;;;12.55;1.75;;;14.60;99.90;;;;;;4153310;28;20038;-69
2023/08/07 00:37:06;;;;;;;6.18;1.83;;;14.70;99.90;;;;;;4136960;28;20040;-69
2023/08/07 00:39:08;;;;;;;8.57;2.38;;;14.70;99.90;;;;;;4145607;28;20065;-68
2023/08/07 00:41:09;;;;;;;7.50;2.10;;;14.70;99.90;;;;;;4124165;28;20042;-68
2023/08/07 00:43:10;;;;;;;9.60;1.83;;;14.70;99.90;;;;;;4132898;28;20113;-68
2023/08/07 00:45:11;;;;;;;5.53;1.58;;;14.60;99.90;;;;;;4135020;28;20029;-69
2023/08/07 00:47:11;;;;;;;5.45;1.50;;;14.60;99.90;;;;;;4137681;28;20032;-69
2023/08/07 00:49:13;;;;;;;4.57;1.42;;;14.60;99.90;;;;;;4150883;28;20034;-68
2023/08/07 00:51:15;;;;;;;10.38;2.25;;;14.60;99.90;;;;;;4141581;28;20103;-68
2023/08/07 00:53:16;;;;;;;5.32;1.50;;;14.60;99.90;;;;;;4157873;28;20116;-68
2023/08/07 00:55:17;;;;;;;8.65;1.88;;;14.60;99.90;;;;;;4140403;28;20061;-68
2023/08/07 00:57:22;;;;;;;5.13;1.75;;;14.60;99.90;;;;;;4154956;28;20781;-70
2023/08/07 00:59:23;;;;;;;6.00;1.95;;;14.70;99.90;;;;;;4152438;28;20033;-68
2023/08/07 01:01:25;;;;;;;9.40;2.00;;;14.70;99.90;;;;;;4153695;28;20391;-69
2023/08/07 01:03:25;;;;;;;6.53;1.75;;;14.70;99.90;;;;;;4167501;22;20096;-63
2023/08/07 01:05:26;;;;;;;8.27;1.80;;;14.70;99.90;;;;;;4144877;28;20037;-65
2023/08/07 01:07:27;;;;;;;6.72;1.75;;;14.70;99.90;;;;;;4157162;28;20442;-69
2023/08/07 01:09:28;;;;;;;6.70;2.13;;;14.70;99.90;;;;;;4146407;28;20113;-71
2023/08/07 01:11:39;;;;;;;7.68;1.77;;;14.70;99.90;;;;;;4154090;28;20029;-68
2023/08/07 01:13:58;;;;;;;5.53;1.65;;;14.70;99.90;;;;;;4138693;28;20105;-67
2023/08/07 01:16:08;;;;;;;7.10;1.92;;;14.70;99.90;;;;;;4139739;28;20062;-66
2023/08/07 01:18:09;;;;;;;7.68;2.25;;;14.70;99.90;;;;;;4150530;28;20435;-70
2023/08/07 01:20:11;;;;;;;12.02;2.10;;;14.70;99.90;;;;;;4152583;28;20025;-72
2023/08/07 01:22:13;;;;;;;8.25;1.80;;;14.70;99.90;;;;;;4147132;28;20519;-69
2023/08/07 01:24:14;;;;;;;9.05;2.17;;;14.60;99.90;;;;;;4142202;28;20040;-69
2023/08/07 01:26:17;;;;;;;7.78;2.10;;;14.60;99.90;;;;;;4137470;28;20391;-61
2023/08/07 01:28:28;;;;;;;8.95;2.58;;;14.50;99.90;;;;;;4167416;28;20475;-66
2023/08/07 01:30:38;;;;;;;10.77;2.33;;;14.40;99.90;;;;;;4151723;28;20045;-66
2023/08/07 01:32:58;;;;;;;6.15;2.00;;;14.40;99.90;;;;;;4157963;28;20029;-66
2023/08/07 01:35:05;;;;;;;7.93;2.55;;;14.40;99.90;;;;;;4142114;28;20121;-66
2023/08/07 01:37:07;;;;;;;9.13;1.90;;;14.30;99.90;;;;;;4137231;28;20034;-63
2023/08/07 01:39:08;;;;;;;9.90;2.20;;;14.30;99.90;;;;;;4149165;28;20037;-63
2023/08/07 01:41:09;;;;;;;5.22;1.70;;;14.30;99.90;;;;;;4126886;28;20039;-63
2023/08/07 01:43:10;;;;;;;4.25;1.58;;;14.30;99.90;;;;;;4156247;28;20034;-62
2023/08/07 01:45:10;;;;;;;9.07;2.13;;;14.30;99.90;;;;;;4152981;28;20034;-63
2023/08/07 01:47:11;;;;;;;6.22;2.15;;;14.30;99.90;;;;;;4143346;28;20490;-63
2023/08/07 01:49:12;;;;;;;7.60;1.83;;;14.30;99.90;;;;;;4142384;28;20034;-63
2023/08/07 01:51:12;;;;;;;4.93;1.90;;;14.20;99.90;;;;;;4137746;28;20038;-62
2023/08/07 01:53:13;;;;;;;6.15;1.73;;;14.30;99.90;;;;;;4143189;28;20018;-63
2023/08/07 01:55:15;;;;;;;5.20;2.40;;;14.20;99.90;;;;;;4138895;28;20033;-63
2023/08/07 01:57:16;;;;;;;6.45;1.90;;;14.20;99.90;;;;;;4152647;28;20389;-63
2023/08/07 01:59:17;;;;;;;7.75;1.88;;;14.30;99.90;;;;;;4176252;28;20021;-63
2023/08/07 02:01:17;;;;;;;7.05;2.30;;;14.30;99.90;;;;;;4149174;28;20390;-63
2023/08/07 02:03:18;;;;;;;8.02;1.73;;;14.30;99.90;;;;;;4139681;28;20042;-63
2023/08/07 02:05:19;;;;;;;7.07;2.15;;;14.20;99.90;;;;;;4141915;28;20390;-63
2023/08/07 02:07:20;;;;;;;5.63;1.73;;;14.20;99.90;;;;;;4142312;28;20022;-63
2023/08/07 02:09:21;;;;;;;6.10;1.70;;;14.20;99.90;;;;;;4139894;28;20030;-63
2023/08/07 02:11:21;;;;;;;7.22;1.88;;;14.20;99.90;;;;;;4138559;28;20089;-63
2023/08/07 02:13:22;;;;;;;5.50;1.77;;;14.20;99.90;;;;;;4134411;28;20053;-63
2023/08/07 02:15:22;;;;;;;4.72;1.83;;;14.30;99.90;;;;;;4144027;28;20065;-63
2023/08/07 02:17:29;;;;;;;5.00;1.88;;;14.20;99.90;;;;;;4151432;28;20026;-62
2023/08/07 02:19:30;;;;;;;6.45;1.95;;;14.30;99.90;;;;;;4155385;28;20084;-64
2023/08/07 02:21:31;;;;;;;8.48;1.75;;;14.30;99.90;;;;;;4137146;28;20043;-65
2023/08/07 02:23:32;;;;;;;7.75;2.10;;;14.30;99.90;;;;;;4144501;28;20517;-65
2023/08/07 02:25:34;;;;;;;8.00;1.83;;;14.30;99.90;;;;;;4142397;28;20022;-65
2023/08/07 02:27:34;;;;;;;9.98;2.13;;;14.30;99.90;;;;;;4151180;28;20038;-65
2023/08/07 02:29:35;;;;;;;8.88;2.35;;;14.40;99.90;;;;;;4151406;28;20113;-64
2023/08/07 02:31:36;;;;;;;10.02;1.83;;;14.30;99.90;;;;;;4143533;28;20532;-65
2023/08/07 02:33:36;;;;;;;8.20;2.45;;;14.40;99.90;;;;;;4143323;28;20520;-65
2023/08/07 02:35:37;;;;;;;11.63;2.90;;;14.40;99.90;;;;;;4141567;28;20041;-65
2023/08/07 02:37:38;;;;;;;9.85;2.63;;;14.40;99.90;;;;;;4144624;28;20027;-65
2023/08/07 02:39:38;;;;;;;7.95;2.58;;;14.40;99.90;;;;;;4148799;28;20450;-65
2023/08/07 02:41:39;;;;;;;5.53;1.70;;;14.40;99.90;;;;;;4133937;28;20073;-65
2023/08/07 02:43:39;;;;;;;7.70;2.55;;;14.40;99.90;;;;;;4129902;28;20042;-65
2023/08/07 02:45:40;;;;;;;10.55;2.30;;;14.40;99.90;;;;;;4142550;28;20374;-72
2023/08/07 02:47:40;;;;;;;7.97;2.38;;;14.30;99.90;;;;;;4146393;28;20041;-72
2023/08/07 02:49:41;;;;;;;6.85;2.13;;;14.40;99.90;;;;;;4148684;28;20053;-73
2023/08/07 02:51:42;;;;;;;12.63;2.75;;;14.40;99.90;;;;;;4140543;28;20069;-73
2023/08/07 02:53:42;;;;;;;9.25;2.22;;;14.30;99.90;;;;;;4144366;28;20031;-72
2023/08/07 02:55:46;;;;;;;7.85;2.33;;;14.30;99.90;;;;;;4143366;28;20033;-73
2023/08/07 02:57:46;;;;;;;10.73;2.03;;;14.30;99.90;;;;;;4146687;28;20037;-73
2023/08/07 02:59:47;;;;;;;10.07;2.42;;;14.30;99.90;;;;;;4156522;28;20038;-73
2023/08/07 03:01:48;;;;;;;10.00;2.78;;;14.30;99.90;;;;;;4139554;28;20062;-73
2023/08/07 03:03:48;;;;;;;5.18;1.65;;;14.30;99.90;;;;;;4139731;28;20484;-73
2023/08/07 03:05:50;;;;;;;11.63;2.17;;;14.30;99.90;;;;;;4152916;28;20605;-74
2023/08/07 03:07:51;;;;;;;12.20;2.70;;;14.30;99.90;;;;;;4157418;28;20042;-74
2023/08/07 03:09:51;;;;;;;9.27;2.20;;;14.30;99.90;;;;;;4160399;28;20040;-73
2023/08/07 03:11:52;;;;;;;9.35;2.28;;;14.40;99.90;;;;;;4157425;28;20038;-74
2023/08/07 03:13:52;;;;;;;7.53;1.90;;;14.40;99.90;;;;;;4147065;28;20064;-73
2023/08/07 03:16:04;;;;;;;6.53;2.00;;;14.30;99.90;;;;;;4156472;28;20072;-74
2023/08/07 03:18:04;;;;;;;5.00;1.63;;;14.30;99.90;;;;;;4153199;28;20448;-74
2023/08/07 03:20:06;;;;;;;11.40;2.80;;;14.40;99.90;;;;;;4160734;28;20167;-74
2023/08/07 03:22:06;;;;;;;5.65;1.80;;;14.40;99.90;;;;;;4160774;28;20096;-72
2023/08/07 03:24:08;;;;;;;7.78;2.17;;;14.40;99.90;;;;;;4152021;28;20501;-74
2023/08/07 03:26:10;;;;;;;11.40;2.50;;;14.40;99.90;;;;;;4138790;28;20046;-74
2023/08/07 03:28:11;;;;;;;8.63;2.45;;;14.40;99.90;;;;;;4135844;28;20030;-61
2023/08/07 03:30:12;;;;;;;7.30;2.35;;;14.40;99.90;;;;;;4139544;28;20030;-61
2023/08/07 03:32:12;;;;;;;11.60;2.55;;;14.50;99.90;;;;;;4141794;28;20045;-61
2023/08/07 03:34:13;;;;;;;9.13;2.85;;;14.40;99.90;;;;;;4149104;28;20037;-60
2023/08/07 03:36:13;;;;;;;10.35;2.45;;;14.40;99.90;;;;;;4158632;28;20076;-74
2023/08/07 03:38:14;;;;;;;7.93;2.42;;;14.40;99.90;;;;;;4167202;28;20033;-66
2023/08/07 03:40:15;;;;;;;8.35;2.60;;;14.40;99.90;;;;;;4159305;28;20029;-66
2023/08/07 03:42:15;;;;;;;7.80;2.00;;;14.40;99.90;;;;;;4160254;28;20030;-66
2023/08/07 03:44:16;;;;;;;7.93;2.55;;;14.40;99.90;;;;;;4159879;28;20120;-65
2023/08/07 03:46:17;;;;;;;10.95;2.50;;;14.40;99.90;;;;;;4161065;28;20047;-69
2023/08/07 03:48:17;;;;;;;7.15;2.13;;;14.40;99.90;;;;;;4167248;28;20052;-75
2023/08/07 03:50:18;;;;;;;8.25;2.30;;;14.40;99.90;;;;;;4157177;28;20049;-75
2023/08/07 03:52:18;;;;;;;7.80;2.15;;;14.40;99.90;;;;;;4161045;28;20065;-75
2023/08/07 03:54:19;;;;;;;8.38;2.55;;;14.40;99.90;;;;;;4144006;28;20046;-75
2023/08/07 03:56:20;;;;;;;4.47;1.58;;;14.40;99.90;;;;;;4160059;28;20162;-64
2023/08/07 03:58:20;;;;;;;6.93;2.33;;;14.40;99.90;;;;;;4163217;28;20108;-75
2023/08/07 04:00:21;;;;;;;4.68;1.80;;;14.40;99.90;;;;;;4157160;28;20060;-75
2023/08/07 04:02:21;;;;;;;5.90;2.30;;;14.40;99.90;;;;;;4157746;28;20045;-75
2023/08/07 04:04:22;;;;;;;7.20;2.17;;;14.50;99.90;;;;;;4164926;28;20091;-75
2023/08/07 04:06:23;;;;;;;10.40;1.92;;;14.40;99.90;;;;;;4158009;28;20057;-76
2023/08/07 04:08:23;;;;;;;9.32;2.40;;;14.50;99.90;;;;;;4160228;28;20083;-75
2023/08/07 04:10:24;;;;;;;10.15;2.58;;;14.40;99.90;;;;;;4163436;28;20041;-75
2023/08/07 04:12:25;;;;;;;8.73;2.55;;;14.40;99.90;;;;;;4161544;28;20041;-75
2023/08/07 04:14:26;;;;;;;9.80;2.78;;;14.40;99.90;;;;;;4148471;28;20517;-76
2023/08/07 04:16:26;;;;;;;9.07;2.45;;;14.40;99.90;;;;;;4147682;28;20501;-69
2023/08/07 04:18:27;;;;;;;6.97;2.17;;;14.40;99.90;;;;;;4153614;28;20124;-74
2023/08/07 04:20:27;;;;;;;13.30;3.00;;;14.40;99.90;;;;;;4142765;28;20034;-75
2023/08/07 04:22:28;;;;;;;8.60;2.60;;;14.40;99.90;;;;;;4140960;28;20034;-75
2023/08/07 04:24:29;;;;;;;8.38;2.65;;;14.40;99.90;;;;;;4150440;28;20038;-75
2023/08/07 04:26:29;;;;;;;9.07;2.65;;;14.40;99.90;;;;;;4141365;28;20041;-75
2023/08/07 04:28:30;;;;;;;7.80;1.88;;;14.40;99.90;;;;;;4140745;28;20061;-75
2023/08/07 04:30:30;;;;;;;9.18;2.55;;;14.40;99.90;;;;;;4145190;28;20077;-75
2023/08/07 04:32:31;;;;;;;6.65;2.35;;;14.40;99.90;;;;;;4145845;28;20037;-75
2023/08/07 04:34:32;;;;;;;11.73;2.85;;;14.40;99.90;;;;;;4151781;28;20033;-75
2023/08/07 04:36:33;;;;;;;10.40;2.95;;;14.40;99.90;;;;;;4145112;28;20081;-75
2023/08/07 04:38:33;;;;;;;6.95;2.72;;;14.40;99.90;;;;;;4149072;28;20362;-74
2023/08/07 04:40:34;;;;;;;13.45;3.00;;;14.40;99.90;;;;;;4150993;28;20176;-74
2023/08/07 04:42:35;;;;;;;11.70;3.03;;;14.40;99.90;;;;;;4148141;28;20155;-73
2023/08/07 04:44:35;;;;;;;12.65;3.17;;;14.40;99.90;;;;;;4142874;28;20037;-72
2023/08/07 04:46:36;;;;;;;6.43;2.25;;;14.40;99.90;;;;;;4150020;28;20102;-72
2023/08/07 04:48:37;;;;;;;9.88;2.92;;;14.40;99.90;;;;;;4158194;28;20048;-72
2023/08/07 04:50:37;;;;;;;5.82;2.28;;;14.40;99.90;;;;;;4147267;28;20104;-71
2023/08/07 04:52:38;;;;;;;9.93;2.90;;;14.40;99.90;;;;;;4152778;28;20033;-69
2023/08/07 04:54:39;;;;;;;6.07;2.35;;;14.30;99.90;;;;;;4151681;28;20057;-69
2023/08/07 04:56:42;;;;;;;6.20;2.53;;;14.30;99.90;;;;;;4148814;28;20091;-69
2023/08/07 04:58:42;;;;;;;;;;;14.30;99.90;;;;;;4135353;28;20041;-68
2023/08/07 05:00:43;;;;;;;10.88;2.85;;;14.30;99.90;;;;;;4150718;28;19952;-68
2023/08/07 05:02:43;;;;;;;8.38;2.55;;;14.30;99.90;;;;;;4142256;28;20941;-68
2023/08/07 05:04:44;;;;;;;8.05;2.42;;;14.30;99.90;;;;;;4139981;28;20037;-68
2023/08/07 05:06:45;;;;;;;11.00;2.58;;;14.30;99.90;;;;;;4138487;28;20042;-64
2023/08/07 05:08:46;;;;;;;6.18;2.20;;;14.20;99.90;;;;;;4146246;28;20041;-71
2023/08/07 05:10:46;;;;;;;10.10;2.53;;;14.30;99.90;;;;;;4137671;28;21340;-70
2023/08/07 05:12:47;;;;;;;12.77;2.97;;;14.30;99.90;;;;;;4152398;28;21089;-71
2023/08/07 05:14:48;;;;;;;7.90;2.28;;;14.30;99.90;;;;;;4143386;28;20426;-71
2023/08/07 05:16:48;;;;;;;8.23;3.05;;;14.30;99.90;;;;;;4150467;28;20413;-70
2023/08/07 05:18:49;;;;;;;8.48;2.53;;;14.20;99.90;;;;;;4141568;28;20144;-71
2023/08/07 05:20:50;;;;;;;8.93;2.90;;;14.20;99.90;;;;;;4131954;28;20498;-71
2023/08/07 05:22:51;;;;;;;8.07;2.30;;;14.30;99.90;;;;;;4133452;28;20041;-71
2023/08/07 05:24:51;;;;;;;8.27;2.20;;;14.20;99.90;;;;;;4134257;28;20038;-71
2023/08/07 05:26:52;;;;;;;8.95;2.85;;;14.20;99.90;;;;;;4128778;28;20042;-71
2023/08/07 05:28:54;;;;;;;15.18;3.28;;;14.20;99.90;;;;;;4135158;28;20498;-71
2023/08/07 05:30:54;;;;;;;11.45;3.00;;;14.20;99.90;;;;;;4136513;28;20057;-71
2023/08/07 05:32:56;;;;;;;7.82;2.97;;;14.20;99.90;;;;;;4151303;28;20516;-70
2023/08/07 05:34:56;;;;;;;8.27;3.03;;;14.20;99.90;;;;;;4151318;28;20109;-71
2023/08/07 05:36:57;;;;;;;11.27;3.20;;;14.10;99.90;;;;;;4143204;28;20037;-71
2023/08/07 05:38:58;;;;;;;10.48;2.88;;;14.10;99.90;;;;;;4142339;28;20501;-69
2023/08/07 05:40:58;;;;;;;8.10;3.05;;;14.10;99.90;;;;;;4158085;28;20042;-69
2023/08/07 05:42:59;;;;;;;9.40;2.60;;;14.10;99.90;;;;;;4158417;28;20046;-69
2023/08/07 05:45:00;;;;;;;9.82;3.17;;;14.10;99.90;;;;;;4161686;28;20056;-70
2023/08/07 05:47:00;;;;;;;9.77;2.88;;;14.10;99.90;;;;;;4143926;28;20550;-69
2023/08/07 05:49:01;;;;;;;10.50;3.10;;;14.00;99.90;;;;;;4156635;28;20026;-70
2023/08/07 05:51:02;;;;;;;9.55;3.17;;;14.00;99.90;;;;;;4146190;28;20499;-70
2023/08/07 05:53:02;;;;;;;10.00;3.03;;;14.00;99.90;;;;;;4150687;28;20056;-70
2023/08/07 05:55:04;;;;;;;8.65;2.47;;;14.00;99.90;;;;;;4159932;28;20374;-71
2023/08/07 05:57:05;;;;;;;5.60;2.40;;;14.00;99.90;;;;;;4143115;28;20029;-70
2023/08/07 05:59:06;;;;;;;4.30;2.25;;;14.00;99.90;;;;;;4146611;28;20437;-70
2023/08/07 06:01:06;;;;;;;7.45;2.67;;;14.00;99.90;;;;;;4140721;28;20038;-70
2023/08/07 06:03:07;;;;;;;7.78;2.90;;;14.00;99.90;;;;;;4154619;28;20045;-70
2023/08/07 06:05:09;;;;;;;5.88;2.75;;;14.00;99.90;;;;;;4134065;28;20034;-71
2023/08/07 06:07:10;;;;;;;11.00;2.83;;;14.00;99.90;;;;;;4148087;28;20030;-64
2023/08/07 06:09:10;;;;;;;11.20;3.42;;;14.00;99.90;;;;;;4131735;28;20045;-70
2023/08/07 06:11:11;;;;;;;5.50;2.20;;;14.00;99.90;;;;;;4152205;28;20030;-69
2023/08/07 06:13:12;;;;;;;5.85;2.55;;;14.00;99.90;;;;;;4151692;28;20065;-70
2023/08/07 06:15:13;;;;;;;8.10;2.72;;;14.00;99.90;;;;;;4151515;28;20037;-70
2023/08/07 06:17:14;;;;;;;6.30;2.30;;;14.00;99.90;;;;;;4140709;28;20061;-65
2023/08/07 06:19:15;;;;;;;8.05;2.85;;;14.00;99.90;;;;;;4148020;28;20767;-64
2023/08/07 06:21:15;;;;;;;7.30;3.05;;;14.00;99.90;;;;;;4162979;28;20060;-67
2023/08/07 06:23:16;;;;;;;5.45;2.63;;;14.00;99.90;;;;;;4150054;28;20048;-64
2023/08/07 06:25:19;;;;;;;5.97;2.53;;;14.00;99.90;;;;;;4147933;28;20033;-65
2023/08/07 06:27:21;;;;;;;;;;;14.00;99.90;;;;;;4146537;28;20501;-73
2023/08/07 06:29:21;;;;;;;6.28;2.40;;;14.10;99.90;;;;;;4151877;28;19921;-66
2023/08/07 06:31:22;;;;;;;6.03;2.58;;;14.10;99.90;;;;;;4149718;28;20090;-66
2023/08/07 06:33:22;;;;;;;12.80;2.63;;;14.10;99.90;;;;;;4148111;28;20037;-66
2023/08/07 06:35:23;;;;;;;5.20;1.80;;;14.10;99.90;;;;;;4150095;28;20048;-66
2023/08/07 06:37:23;;;;;;;7.18;2.47;;;14.10;99.90;;;;;;4138523;28;20394;-66
2023/08/07 06:39:24;;;;;;;6.85;2.50;;;14.20;99.90;;;;;;4143574;28;20061;-66
2023/08/07 06:41:25;;;;;;;6.90;2.10;;;14.20;99.90;;;;;;4140751;28;20042;-66
2023/08/07 06:43:26;;;;;;;9.52;2.88;;;14.20;99.90;;;;;;4164000;28;20098;-66
2023/08/07 06:45:27;;;;;;;7.43;2.35;;;14.20;99.90;;;;;;4133560;28;20402;-66
2023/08/07 06:47:27;;;;;;;9.20;2.50;;;14.20;99.90;;;;;;4128924;28;20045;-67
2023/08/07 06:49:28;;;;;;;5.88;2.35;;;14.20;99.90;;;;;;4139766;28;20038;-66
2023/08/07 06:51:29;;;;;;;12.77;3.17;;;14.10;99.90;;;;;;4135804;28;20387;-66
2023/08/07 06:53:30;;;;;;;5.97;2.20;;;14.10;99.90;;;;;;4146025;28;20037;-66
2023/08/07 06:55:30;;;;;;;8.00;2.30;;;14.20;99.90;;;;;;4147979;28;20056;-66
2023/08/07 06:57:31;;;;;;;8.52;2.33;;;14.20;99.90;;;;;;4131609;28;20093;-66
2023/08/07 06:59:31;;;;;;;8.50;2.85;;;14.20;99.90;;;;;;4140949;28;20474;-66
2023/08/07 07:01:32;;;;;;;7.00;2.65;;;14.10;99.90;;;;;;4131305;28;20041;-66
2023/08/07 07:03:33;;;;;;;8.05;2.25;;;14.20;99.90;;;;;;4133440;28;20042;-66
2023/08/07 07:05:37;;;;;;;5.97;2.38;;;14.20;99.90;;;;;;4146406;28;20084;-67
2023/08/07 07:07:38;;;;;;;8.98;2.67;;;14.20;99.90;;;;;;4144532;28;21006;-66
2023/08/07 07:09:38;;;;;;;10.00;2.88;;;14.20;99.90;;;;;;4130775;28;20026;-67
2023/08/07 07:11:39;;;;;;;12.45;2.33;;;14.20;99.90;;;;;;4133808;28;20069;-66
2023/08/07 07:13:41;;;;;;;9.05;2.42;;;14.20;99.90;;;;;;4140805;28;20058;-66
2023/08/07 07:15:42;;;;;;;7.57;2.40;;;14.20;99.90;;;;;;4130559;28;20026;-66
2023/08/07 07:17:42;;;;;;;7.85;2.42;;;14.20;99.90;;;;;;4136262;28;20763;-66
2023/08/07 07:19:43;;;;;;;9.38;2.53;;;14.20;99.90;;;;;;4140961;28;20117;-66
2023/08/07 07:21:44;;;;;;;7.60;2.47;;;14.20;99.90;;;;;;4143037;28;20045;-66
2023/08/07 07:23:44;;;;;;;10.50;2.88;;;14.20;99.90;;;;;;4148671;28;20033;-66
2023/08/07 07:25:45;;;;;;;6.80;2.50;;;14.20;99.90;;;;;;4143160;28;20386;-66
2023/08/07 07:27:47;;;;;;;8.95;2.58;;;14.20;99.90;;;;;;4136663;28;20130;-66
2023/08/07 07:29:48;;;;;;;7.90;2.93;;;14.20;99.90;;;;;;4142693;28;20037;-70
2023/08/07 07:31:50;;;;;;;8.30;2.80;;;14.20;99.90;;;;;;4137546;28;20042;-70
2023/08/07 07:33:50;;;;;;;6.28;2.50;;;14.20;99.90;;;;;;4139770;28;20453;-69
2023/08/07 07:35:51;;;;;;;9.75;2.55;;;14.20;99.90;;;;;;4137290;28;20069;-69
2023/08/07 07:37:51;;;;;;;7.18;2.05;;;14.30;99.90;;;;;;4139244;28;20046;-66
2023/08/07 07:39:52;;;;;;;6.93;2.72;;;14.30;99.90;;;;;;4142220;28;20107;-66
2023/08/07 07:41:53;;;;;;;6.18;2.30;;;14.30;99.90;;;;;;4156426;28;20112;-66
2023/08/07 07:43:53;;;;;;;7.35;2.22;;;14.30;99.90;;;;;;4144222;28;20390;-66
2023/08/07 07:45:54;;;;;;;7.88;2.22;;;14.40;99.90;;;;;;4135521;28;20058;-66
2023/08/07 07:47:55;;;;;;;6.40;2.13;;;14.40;99.90;;;;;;4130089;28;20073;-66
2023/08/07 07:50:08;;;;;;;7.03;2.70;;;14.50;99.90;;;;;;4135057;28;20082;-66
2023/08/07 07:52:09;;;;;;;5.13;2.13;;;14.50;99.90;;;;;;4138049;28;20037;-66
2023/08/07 07:54:09;;;;;;;7.28;2.47;;;14.50;99.90;;;;;;4135114;28;20046;-65
2023/08/07 07:56:10;;;;;;;6.95;2.17;;;14.60;99.90;;;;;;4138903;28;20042;-65
2023/08/07 07:58:11;;;;;;;10.80;2.55;;;14.60;99.90;;;;;;4137977;28;20683;-66
2023/08/07 08:00:13;;;;;;;5.53;1.75;;;14.60;99.90;;;;;;4150466;28;20044;-67
2023/08/07 08:02:15;;;;;;;11.27;2.90;;;14.60;99.90;;;;;;4132622;28;20210;-66
2023/08/07 08:04:16;;;;;;;7.80;2.20;;;14.70;99.90;;;;;;4127598;28;20587;-65
2023/08/07 08:06:16;;;;;;;7.03;2.42;;;14.70;99.90;;;;;;4133246;28;20050;-66
2023/08/07 08:08:17;;;;;;;4.72;1.77;;;14.70;99.90;;;;;;4133102;28;20068;-66
2023/08/07 08:10:18;;;;;;;6.57;1.80;;;14.80;99.90;;;;;;4137990;28;20053;-66
2023/08/07 08:12:19;;;;;;;4.18;1.80;;;14.80;99.90;;;;;;4142790;28;20610;-65
2023/08/07 08:14:19;;;;;;;6.13;2.28;;;14.80;99.90;;;;;;4125518;28;20045;-65
2023/08/07 08:16:20;;;;;;;15.20;3.17;;;14.90;99.90;;;;;;4133697;28;20465;-65
2023/08/07 08:18:20;;;;;;;7.57;2.55;;;14.90;99.90;;;;;;4135410;28;20053;-65
2023/08/07 08:20:21;;;;;;;9.88;2.45;;;15.00;99.90;;;;;;4134529;28;20034;-65
2023/08/07 08:22:22;;;;;;;8.75;2.65;;;15.00;99.90;;;;;;4127832;28;20573;-66
2023/08/07 08:24:22;;;;;;;11.75;2.53;;;15.10;99.90;;;;;;4131321;28;20034;-65
2023/08/07 08:26:23;;;;;;;4.60;1.88;;;15.20;99.90;;;;;;4129250;28;20756;-66
2023/08/07 08:28:24;;;;;;;6.38;1.60;;;15.20;99.90;;;;;;4129081;28;20074;-65
2023/08/07 08:30:25;;;;;;;3.58;1.80;;;15.20;99.90;;;;;;4134448;28;20069;-65
2023/08/07 08:32:25;;;;;;;7.38;2.10;;;15.30;99.90;;;;;;4129948;28;20041;-66
2023/08/07 08:34:27;;;;;;;4.57;1.80;;;15.30;99.90;;;;;;4126095;28;20401;-65
2023/08/07 08:36:28;;;;;;;4.80;1.83;;;15.30;99.90;;;;;;4128000;28;20545;-66
2023/08/07 08:38:32;;;;;;;3.60;1.60;;;15.40;99.90;;;;;;4131001;28;20045;-77
2023/08/07 08:40:34;;;;;;;4.35;2.08;;;15.50;99.90;;;;;;4154764;28;20056;-76
2023/08/07 08:42:36;;;;;;;7.80;2.13;;;15.60;99.90;;;;;;4133619;28;20642;-75
2023/08/07 08:44:40;;;;;;;6.63;2.05;;;15.70;99.90;;;;;;4134810;28;20590;-77
2023/08/07 08:46:42;;;;;;;7.72;2.55;;;15.80;99.90;;;;;;4130667;28;20026;-76
2023/08/07 08:48:49;;;;;;;6.72;2.38;;;15.90;99.90;;;;;;4128027;28;20034;-70
2023/08/07 08:50:51;;;;;;;10.80;2.80;;;16.00;99.90;;;;;;4132874;28;20068;-70
2023/08/07 08:52:53;;;;;;;8.48;2.67;;;16.00;99.90;;;;;;4128821;28;20053;-70
2023/08/07 08:54:56;;;;;;;5.83;2.47;;;16.10;99.90;;;;;;4126779;28;20526;-70
2023/08/07 08:56:59;;;;;;;8.05;2.60;;;16.00;99.90;;;;;;4126964;28;20270;-71
2023/08/07 08:59:00;;;;;;;7.80;2.30;;;16.10;99.90;;;;;;4134872;28;20113;-70
2023/08/07 09:01:01;;;;;;;13.18;3.42;;;16.10;99.90;;;;;;4131944;28;20057;-71
2023/08/07 09:03:02;;;;;;;10.57;2.65;;;16.10;99.90;;;;;;4140666;28;20053;-70
2023/08/07 09:05:04;;;;;;;13.30;3.08;;;16.00;99.90;;;;;;4133282;28;20042;-71
2023/08/07 09:07:06;;;;;;;9.52;2.55;;;16.00;99.90;;;;;;4139218;28;20486;-68
2023/08/07 09:09:08;;;;;;;9.70;2.95;;;16.00;99.90;;;;;;4139974;28;20061;-68
2023/08/07 09:11:10;;;;;;;9.73;2.85;;;15.90;99.90;;;;;;4139843;28;20231;-68
2023/08/07 09:13:14;;;;;;;13.32;3.05;;;16.00;99.90;;;;;;4133072;28;20084;-68
2023/08/07 09:15:17;;;;;;;9.02;2.60;;;16.00;99.90;;;;;;4130027;28;20486;-68
2023/08/07 09:17:19;;;;;;;10.90;2.72;;;16.00;99.90;;;;;;4132644;28;20034;-69
2023/08/07 09:19:19;;;;;;;9.38;2.65;;;16.00;99.90;;;;;;4131531;28;20033;-68
2023/08/07 09:21:20;;;;;;;11.43;2.55;;;15.90;99.90;;;;;;4135152;28;20042;-68
2023/08/07 09:23:21;;;;;;;9.05;2.58;;;15.80;99.90;;;;;;4134908;28;20572;-70
2023/08/07 09:25:30;;;;;;;12.35;3.15;;;15.80;99.90;;;;;;4139756;28;20058;-68
2023/08/07 09:27:31;;;;;;;9.65;2.63;;;15.80;99.90;;;;;;4155395;28;20041;-69
2023/08/07 09:29:31;;;;;;;9.90;3.10;;;15.80;99.90;;;;;;4139443;28;20049;-71
2023/08/07 09:31:32;;;;;;;8.63;2.75;;;15.80;99.90;;;;;;4129585;28;20034;-70
2023/08/07 09:33:33;;;;;;;12.88;2.63;;;15.90;99.90;;;;;;4133726;28;20052;-70
2023/08/07 09:35:34;;;;;;;8.00;2.88;;;15.90;99.90;;;;;;4136097;28;20117;-71
2023/08/07 09:37:36;;;;;;;12.60;2.63;;;16.00;99.90;;;;;;4127611;28;20034;-70
2023/08/07 09:39:37;;;;;;;9.45;2.85;;;16.00;99.90;;;;;;4126871;28;20046;-70
2023/08/07 09:41:38;;;;;;;8.32;2.63;;;16.10;99.90;;;;;;4136529;28;20026;-70
2023/08/07 09:43:38;;;;;;;10.05;2.92;;;16.20;99.90;;;;;;4138430;28;20066;-69
2023/08/07 09:45:40;;;;;;;8.43;2.78;;;16.30;99.90;;;;;;4138024;28;20215;-69
2023/08/07 09:47:40;;;;;;;9.50;2.95;;;16.40;99.90;;;;;;4138816;28;20041;-69
2023/08/07 09:49:42;;;;;;;10.15;2.70;;;16.50;99.90;;;;;;4135241;28;20034;-65
2023/08/07 09:51:47;;;;;;;5.35;2.40;;;16.70;99.90;;;;;;4131683;28;20034;-65
2023/08/07 09:53:49;;;;;;;6.82;2.15;;;16.80;99.90;;;;;;4133365;28;20050;-65
2023/08/07 09:55:52;;;;;;;12.05;3.53;;;16.90;99.90;;;;;;4146382;28;20029;-65
2023/08/07 09:57:53;;;;;;;9.88;2.90;;;17.10;99.90;;;;;;4134866;28;20047;-65
2023/08/07 09:59:54;;;;;;;12.50;2.95;;;17.20;99.90;;;;;;4134070;28;20064;-65
2023/08/07 10:01:55;;;;;;;11.98;2.60;;;17.30;99.90;;;;;;4133452;28;20116;-64
2023/08/07 10:03:57;;;;;;;10.95;2.63;;;17.40;99.90;;;;;;4136647;28;21179;-64
2023/08/07 10:05:59;;;;;;;17.55;3.65;;;17.50;99.90;;;;;;4131103;28;20031;-64
2023/08/07 10:08:00;;;;;;;5.55;2.40;;;17.60;99.90;;;;;;4129253;28;20058;-64
2023/08/07 10:10:01;;;;;;;7.20;2.53;;;17.70;99.90;;;;;;4132780;28;20038;-64
2023/08/07 10:12:03;;;;;;;19.70;3.13;;;17.80;99.90;;;;;;4130277;28;20509;-65
2023/08/07 10:14:04;;;;;;;8.40;2.00;;;17.80;99.90;;;;;;4134021;28;20358;-65
2023/08/07 10:16:05;;;;;;;10.70;2.78;;;17.90;99.90;;;;;;4133539;28;20212;-65
2023/08/07 10:18:05;;;;;;;6.78;2.20;;;18.00;99.90;;;;;;4136981;28;21121;-64
2023/08/07 10:20:08;;;;;;;8.02;2.35;;;18.00;99.90;;;;;;4132653;28;20041;-66
2023/08/07 10:22:08;;;;;;;4.80;1.70;;;18.00;99.90;;;;;;4132002;28;20042;-65
2023/08/07 10:24:10;;;;;;;7.43;2.20;;;18.00;99.90;;;;;;4131274;28;20446;-65
2023/08/07 10:26:11;;;;;;;8.93;2.38;;;18.10;99.90;;;;;;4131660;28;20025;-64
2023/08/07 10:28:15;;;;;;;8.20;2.40;;;18.10;99.90;;;;;;4133322;28;20050;-65
2023/08/07 10:30:19;;;;;;;15.35;2.53;;;18.00;99.90;;;;;;4131572;28;20026;-65